ADDS METAR Data INFO
IDs: Format: Raw Decoded Include TAF

Data at: 0512 UTC 22 Jul 2017

KBPI 220453Z AUTO 34011KT 10SM CLR 14/00 A3030 RMK AO2 SLP166 T01390000
KBPI 220353Z AUTO 35010KT 10SM CLR 17/00 A3029 RMK AO2 SLP162 T01670000
KBPI 220253Z AUTO 34010KT 10SM CLR 19/01 A3026 RMK AO2 SLP152 T01890011 53007
KBPI 220153Z AUTO 34011KT 10SM CLR 24/02 A3024 RMK AO2 SLP140 T02390017
KBPI 220053Z AUTO 31007KT 10SM CLR 27/02 A3023 RMK AO2 SLP133 T02670022
KBPI 212353Z AUTO 31011KT 10SM CLR 28/00 A3024 RMK AO2 SLP134 T02780000 10289 20228 56005
KBPI 212253Z AUTO 32010KT 10SM CLR 28/01 A3024 RMK AO2 SLP134 T02830006
KBPI 212153Z AUTO VRB05KT 10SM CLR 27/04 A3024 RMK AO2 SLP136 T02720044
KBPI 212053Z AUTO 28006KT 10SM CLR 27/07 A3026 RMK AO2 SLP141 T02670067 58012
KBPI 211953Z AUTO VRB04KT 10SM CLR 25/08 A3028 RMK AO2 SLP151 T02500078
KBPI 211853Z AUTO 15004KT 10SM CLR 24/08 A3029 RMK AO2 SLP156 T02440083
KBPI 211753Z AUTO 08005KT 10SM CLR 23/10 A3030 RMK AO2 SLP163 60000 T02280100 10228 20117 57001
KBPI 211653Z AUTO 12003KT 10SM CLR 20/12 A3030 RMK AO2 SLP167 T02000117
KBPI 211553Z AUTO 00000KT 10SM CLR 17/14 A3030 RMK AO2 SLP168 T01720139
KBPI 211520Z AUTO 00000KT 10SM FEW009 BKN100 17/14 A3030 RMK AO2 T01670144
KBPI 211453Z AUTO 00000KT 10SM FEW070 BKN110 16/14 A3030 RMK AO2 SLP173 60000 T01610139 53009
KBPI 211353Z AUTO 34003KT 10SM OVC070 13/12 A3029 RMK AO2 SLP170 T01330122
KBPI 211253Z AUTO 00000KT 10SM BKN080 BKN120 12/12 A3028 RMK AO2 LTG DSNT E AND SE RAB02E14 TSB1159E14 SLP161 P0000 T01170117
KBPI 211220Z AUTO 24003KT 10SM FEW044 BKN100 OVC120 12/12 A3028 RMK AO2 RAB02E14 TSB1159E14 P0000 T01170117
KBPI 211205Z AUTO 29006KT 10SM -TSRA FEW044 SCT070 BKN090 12/12 A3028 RMK AO2 LTG DSNT E RAB02 TSB1159 P0000 T01170117
KBPI 211153Z AUTO 28008KT 10SM VCTS SCT100 BKN120 12/11 A3027 RMK AO2 LTG DSNT E AND SW RAE12 TSE24 SLP164 P0009 60037 70056 T01170111 10144 20117 55004
KBPI 211148Z AUTO 26005KT 10SM VCTS BKN110 12/11 A3027 RMK AO2 LTG DSNT E AND SW RAE12 TSE24 P0009
KBPI 211140Z AUTO 10005KT 10SM FEW085 BKN110 12/12 A3026 RMK AO2 LTG DSNT E-SW RAE12 TSE24 P0009 T01220117
KBPI 211130Z AUTO 12004KT 10SM VCTS FEW080 BKN110 12/12 A3026 RMK AO2 LTG DSNT E AND SE RAE12 TSE24 P0009 T01220117
KBPI 211102Z AUTO 15006KT 3SM +TSRA BR BKN036 BKN055 OVC085 12/11 A3027 RMK AO2 LTG DSNT E P0009 T01220111
KBPI 211053Z AUTO VRB04KT 1SM +TSRA BR SCT033 BKN055 OVC070 13/12 A3028 RMK AO2 LTG DSNT NE RAB46 TSB42 SLP148 P0028 T01280122
KBPI 211048Z AUTO VRB04KT 2SM -TSRA BR FEW015 BKN055 OVC070 14/12 A3029 RMK AO2 LTG DSNT NE RAB46 TSB42 P0020
KBPI 211035Z AUTO 01011KT 10SM VCTS BKN055 OVC070 14/13 A3027 RMK AO2 LTG DSNT NE AND W T01390128
KBPI 210953Z AUTO 05006KT 10SM BKN050 BKN110 13/12 A3025 RMK AO2 LTG DSNT W SLP142 T01280117
KBPI 210853Z AUTO 00000KT 10SM BKN080 BKN095 BKN110 13/12 A3026 RMK AO2 SLP151 T01280122 50005
KBPI 210753Z AUTO 00000KT 10SM BKN070 12/12 A3027 RMK AO2 SLP155 T01220117
KBPI 210653Z AUTO 03004KT 10SM CLR 13/11 A3025 RMK AO2 SLP143 T01280111 402890100
KBPI 210553Z AUTO 00000KT 10SM CLR 13/12 A3024 RMK AO2 SLP139 60000 T01330117 10211 20133 50004
KBPI 210453Z AUTO 34006KT 10SM BKN120 14/12 A3025 RMK AO2 SLP144 T01440122
KBPI 210353Z AUTO 30003KT 10SM CLR 17/12 A3024 RMK AO2 SLP142 T01670122
KBPI 210253Z AUTO 28005KT 10SM CLR 16/13 A3023 RMK AO2 SLP144 60000 T01610133 53004
KBPI 210153Z AUTO 04005KT 10SM CLR 19/13 A3023 RMK AO2 SLP146 T01890133
KBPI 210053Z AUTO 04014KT 10SM SCT100 21/12 A3021 RMK AO2 LTG DSNT S RAB2357E06 TSB2359E24 SLP141 P0000 T02110122
KBPI 210050Z AUTO 04013KT 10SM SCT100 21/12 A3021 RMK AO2 LTG DSNT S RAB2357E06 TSB2359E24 P0000
KBPI 210030Z AUTO 08015KT 10SM VCTS SCT100 19/12 A3021 RMK AO2 LTG DSNT NE RAB2357E06 TSB2359E24 P0000 T01940122
KBPI 210005Z AUTO 04014G24KT 10SM -TSRA SCT075 BKN110 18/12 A3022 RMK AO2 LTG DSNT E RAB2357 TSB2359 P0000 T01830117
KBPI 202353Z AUTO 03022G30KT 10SM BKN080 BKN110 19/11 A3022 RMK AO2 PK WND 03030/2348 LTG DSNT E SLP147 60019 T01940111 10289 20194 55002
KBPI 202253Z AUTO 24015G19KT 10SM FEW120 28/12 A3019 RMK AO2 WSHFT 2208 LTG DSNT ALQDS SLP119 T02780117
KBPI 202228Z AUTO 26015G23KT 10SM CLR 27/12 A3020 RMK AO2 WSHFT 2208 LTG DSNT N AND E T02670122
KBPI 202153Z AUTO VRB04KT 10SM FEW090 SCT110 26/15 A3020 RMK AO2 RAE14 SLP124 P0015 T02560150
KBPI 202144Z AUTO 11007KT 10SM FEW100 24/16 A3020 RMK AO2 RAE14 P0015 T02390156
KBPI 202129Z AUTO 12008KT 10SM VCTS FEW075 BKN110 24/16 A3021 RMK AO2 LTG DSNT N RAE14 P0015 T02390156
KBPI 202115Z AUTO 12004KT 10SM FEW039 BKN075 BKN090 23/16 A3022 RMK AO2 RAE14 P0015 T02280156
KBPI 202103Z AUTO 18005KT 2SM +RA FEW039 SCT060 BKN075 20/15 A3023 RMK AO2 P0015 T02000150
KBPI 202053Z AUTO 14010KT 10SM VCTS -RA FEW049 SCT080 BKN095 22/15 A3022 RMK AO2 RAE1955B11E25B48 TSB1956E11B14E31 SLP132 P0001 60004 T02220150 58022
KBPI 202034Z AUTO 11008KT 10SM FEW045 FEW100 25/12 A3023 RMK AO2 LTG DSNT E RAE1955B11E25 TSB1956E11B14E31 P0000 T02500117
KBPI 202002Z AUTO 14012G19KT 10SM TS FEW028 FEW090 SCT110 23/13 A3025 RMK AO2 RAE1955 TSB1956 P0000 T02280128
KBPI 201953Z AUTO 15012KT 10SM -RA FEW028 BKN100 22/14 A3026 RMK AO2 TSB31E49 SLP143 P0003 T02220144
KBPI 201937Z AUTO 15006KT 8SM -TSRA BKN100 22/15 A3026 RMK AO2 TSB31 P0003 T02220150
KBPI 201853Z AUTO 20008KT 10SM -RA FEW070 SCT090 BKN110 25/09 A3028 RMK AO2 RAB51 SLP145 P0000 T02500094
KBPI 201753Z AUTO VRB04KT 10SM CLR 24/10 A3030 RMK AO2 SLP150 T02440100 10244 20106 58007